sensor_id;sensor_type;location;lat;lon;timestamp;temperature;humidity
13970;DHT22;7057;49.984;8.404;2023-04-03T00:00:51;5.50;99.90
13970;DHT22;7057;49.984;8.404;2023-04-03T00:03:19;5.50;99.90
13970;DHT22;7057;49.984;8.404;2023-04-03T00:05:46;5.50;99.90
13970;DHT22;7057;49.984;8.404;2023-04-03T00:08:14;5.50;99.90
13970;DHT22;7057;49.984;8.404;2023-04-03T00:10:43;5.50;99.90
13970;DHT22;7057;49.984;8.404;2023-04-03T00:13:10;5.50;99.90
13970;DHT22;7057;49.984;8.404;2023-04-03T00:15:38;5.50;99.90
13970;DHT22;7057;49.984;8.404;2023-04-03T00:18:06;5.60;99.90
13970;DHT22;7057;49.984;8.404;2023-04-03T00:20:34;5.60;99.90
13970;DHT22;7057;49.984;8.404;2023-04-03T00:23:01;5.60;99.90
13970;DHT22;7057;49.984;8.404;2023-04-03T00:25:29;5.70;99.90
13970;DHT22;7057;49.984;8.404;2023-04-03T00:27:57;5.60;99.90
13970;DHT22;7057;49.984;8.404;2023-04-03T00:30:25;5.60;99.90
13970;DHT22;7057;49.984;8.404;2023-04-03T00:32:52;5.60;99.90
13970;DHT22;7057;49.984;8.404;2023-04-03T00:35:21;5.60;99.90
13970;DHT22;7057;49.984;8.404;2023-04-03T00:37:50;5.50;99.90
13970;DHT22;7057;49.984;8.404;2023-04-03T00:40:18;5.50;99.90
13970;DHT22;7057;49.984;8.404;2023-04-03T00:42:47;5.50;99.90
13970;DHT22;7057;49.984;8.404;2023-04-03T00:45:29;5.50;99.90
13970;DHT22;7057;49.984;8.404;2023-04-03T00:47:57;5.60;99.90
13970;DHT22;7057;49.984;8.404;2023-04-03T00:50:26;5.60;99.90
13970;DHT22;7057;49.984;8.404;2023-04-03T00:52:54;5.60;99.90
13970;DHT22;7057;49.984;8.404;2023-04-03T00:55:21;5.60;99.90
13970;DHT22;7057;49.984;8.404;2023-04-03T00:57:49;5.60;99.90
13970;DHT22;7057;49.984;8.404;2023-04-03T01:00:19;5.60;99.90
13970;DHT22;7057;49.984;8.404;2023-04-03T01:02:50;5.70;99.90
13970;DHT22;7057;49.984;8.404;2023-04-03T01:05:19;5.60;99.90
13970;DHT22;7057;49.984;8.404;2023-04-03T01:07:48;5.60;99.90
13970;DHT22;7057;49.984;8.404;2023-04-03T01:10:17;5.60;99.90
13970;DHT22;7057;49.984;8.404;2023-04-03T01:12:46;5.60;99.90
13970;DHT22;7057;49.984;8.404;2023-04-03T01:15:16;5.60;99.90
13970;DHT22;7057;49.984;8.404;2023-04-03T01:17:45;5.50;99.90
13970;DHT22;7057;49.984;8.404;2023-04-03T01:20:56;5.50;99.90
13970;DHT22;7057;49.984;8.404;2023-04-03T01:23:44;5.60;99.90
13970;DHT22;7057;49.984;8.404;2023-04-03T01:26:12;5.60;99.90
13970;DHT22;7057;49.984;8.404;2023-04-03T01:28:40;5.60;99.90
13970;DHT22;7057;49.984;8.404;2023-04-03T01:31:13;5.60;99.90
13970;DHT22;7057;49.984;8.404;2023-04-03T01:33:43;5.60;99.90
13970;DHT22;7057;49.984;8.404;2023-04-03T01:36:16;5.60;99.90
13970;DHT22;7057;49.984;8.404;2023-04-03T01:38:44;5.60;99.90
13970;DHT22;7057;49.984;8.404;2023-04-03T01:41:11;5.50;99.90
13970;DHT22;7057;49.984;8.404;2023-04-03T01:43:38;5.60;99.90
13970;DHT22;7057;49.984;8.404;2023-04-03T01:46:05;5.70;99.90
13970;DHT22;7057;49.984;8.404;2023-04-03T01:48:33;5.60;99.90
13970;DHT22;7057;49.984;8.404;2023-04-03T01:51:02;5.60;99.90
13970;DHT22;7057;49.984;8.404;2023-04-03T01:53:29;5.60;99.90
13970;DHT22;7057;49.984;8.404;2023-04-03T01:55:56;5.60;99.90
13970;DHT22;7057;49.984;8.404;2023-04-03T01:58:24;5.60;99.90
13970;DHT22;7057;49.984;8.404;2023-04-03T02:00:52;5.50;99.90
13970;DHT22;7057;49.984;8.404;2023-04-03T02:03:20;5.50;99.90
13970;DHT22;7057;49.984;8.404;2023-04-03T02:05:47;5.50;99.90
13970;DHT22;7057;49.984;8.404;2023-04-03T02:08:16;5.50;99.90
13970;DHT22;7057;49.984;8.404;2023-04-03T02:10:44;5.60;99.90
13970;DHT22;7057;49.984;8.404;2023-04-03T02:13:11;5.60;99.90
13970;DHT22;7057;49.984;8.404;2023-04-03T02:15:39;5.60;99.90
13970;DHT22;7057;49.984;8.404;2023-04-03T02:18:06;5.60;99.90
13970;DHT22;7057;49.984;8.404;2023-04-03T02:20:34;5.60;99.90
13970;DHT22;7057;49.984;8.404;2023-04-03T02:23:01;5.60;99.90
13970;DHT22;7057;49.984;8.404;2023-04-03T02:25:30;5.60;99.90
13970;DHT22;7057;49.984;8.404;2023-04-03T02:27:57;5.60;99.90
13970;DHT22;7057;49.984;8.404;2023-04-03T02:30:25;5.60;99.90
13970;DHT22;7057;49.984;8.404;2023-04-03T02:32:52;5.60;99.90
13970;DHT22;7057;49.984;8.404;2023-04-03T02:35:20;5.60;99.90
13970;DHT22;7057;49.984;8.404;2023-04-03T02:37:47;5.60;99.90
13970;DHT22;7057;49.984;8.404;2023-04-03T02:43:38;5.60;99.90
13970;DHT22;7057;49.984;8.404;2023-04-03T02:46:06;5.50;99.90
13970;DHT22;7057;49.984;8.404;2023-04-03T02:48:34;5.50;99.90
13970;DHT22;7057;49.984;8.404;2023-04-03T02:51:01;5.50;99.90
13970;DHT22;7057;49.984;8.404;2023-04-03T02:53:28;5.50;99.90
13970;DHT22;7057;49.984;8.404;2023-04-03T02:55:55;5.50;99.90
13970;DHT22;7057;49.984;8.404;2023-04-03T02:58:22;5.70;99.90
13970;DHT22;7057;49.984;8.404;2023-04-03T03:00:51;5.50;99.90
13970;DHT22;7057;49.984;8.404;2023-04-03T03:03:18;5.50;99.90
13970;DHT22;7057;49.984;8.404;2023-04-03T03:05:45;5.40;99.90
13970;DHT22;7057;49.984;8.404;2023-04-03T03:08:14;5.40;99.90
13970;DHT22;7057;49.984;8.404;2023-04-03T03:10:41;5.40;99.90
13970;DHT22;7057;49.984;8.404;2023-04-03T03:13:08;5.40;99.90
13970;DHT22;7057;49.984;8.404;2023-04-03T03:15:35;5.40;99.90
13970;DHT22;7057;49.984;8.404;2023-04-03T03:18:04;5.30;99.90
13970;DHT22;7057;49.984;8.404;2023-04-03T03:20:31;5.30;99.90
13970;DHT22;7057;49.984;8.404;2023-04-03T03:22:58;5.30;99.90
13970;DHT22;7057;49.984;8.404;2023-04-03T03:25:25;5.30;99.90
13970;DHT22;7057;49.984;8.404;2023-04-03T03:27:52;5.30;99.90
13970;DHT22;7057;49.984;8.404;2023-04-03T03:30:19;5.20;99.90
13970;DHT22;7057;49.984;8.404;2023-04-03T03:32:46;5.20;99.90
13970;DHT22;7057;49.984;8.404;2023-04-03T03:35:15;5.20;99.90
13970;DHT22;7057;49.984;8.404;2023-04-03T03:37:42;5.20;99.90
13970;DHT22;7057;49.984;8.404;2023-04-03T03:40:10;5.30;99.90
13970;DHT22;7057;49.984;8.404;2023-04-03T03:42:39;5.20;99.90
13970;DHT22;7057;49.984;8.404;2023-04-03T03:45:07;5.30;99.90
13970;DHT22;7057;49.984;8.404;2023-04-03T03:47:34;5.20;99.90
13970;DHT22;7057;49.984;8.404;2023-04-03T03:50:02;5.20;99.90
13970;DHT22;7057;49.984;8.404;2023-04-03T03:52:31;5.20;99.90
13970;DHT22;7057;49.984;8.404;2023-04-03T03:54:58;5.20;99.90
13970;DHT22;7057;49.984;8.404;2023-04-03T03:57:25;5.10;99.90
13970;DHT22;7057;49.984;8.404;2023-04-03T03:59:54;5.10;99.90
13970;DHT22;7057;49.984;8.404;2023-04-03T04:02:21;5.20;99.90
13970;DHT22;7057;49.984;8.404;2023-04-03T04:04:48;5.20;99.90
13970;DHT22;7057;49.984;8.404;2023-04-03T04:07:16;5.10;99.90
13970;DHT22;7057;49.984;8.404;2023-04-03T04:09:44;5.10;99.90
13970;DHT22;7057;49.984;8.404;2023-04-03T04:12:11;5.20;99.90
13970;DHT22;7057;49.984;8.404;2023-04-03T04:14:38;5.10;99.90
13970;DHT22;7057;49.984;8.404;2023-04-03T04:17:05;5.10;99.90
13970;DHT22;7057;49.984;8.404;2023-04-03T04:19:33;5.00;99.90
13970;DHT22;7057;49.984;8.404;2023-04-03T04:22:00;5.00;99.90
13970;DHT22;7057;49.984;8.404;2023-04-03T04:24:27;5.00;99.90
13970;DHT22;7057;49.984;8.404;2023-04-03T04:26:55;4.90;99.90
13970;DHT22;7057;49.984;8.404;2023-04-03T04:29:22;4.90;99.90
13970;DHT22;7057;49.984;8.404;2023-04-03T04:31:49;4.90;99.90
13970;DHT22;7057;49.984;8.404;2023-04-03T04:34:17;4.90;99.90
13970;DHT22;7057;49.984;8.404;2023-04-03T04:36:44;4.90;99.90
13970;DHT22;7057;49.984;8.404;2023-04-03T04:39:11;4.90;99.90
13970;DHT22;7057;49.984;8.404;2023-04-03T04:41:38;4.80;99.90
13970;DHT22;7057;49.984;8.404;2023-04-03T04:44:06;4.80;99.90
13970;DHT22;7057;49.984;8.404;2023-04-03T04:46:34;4.70;99.90
13970;DHT22;7057;49.984;8.404;2023-04-03T04:49:01;4.70;99.90
13970;DHT22;7057;49.984;8.404;2023-04-03T04:51:28;4.60;99.90
13970;DHT22;7057;49.984;8.404;2023-04-03T04:53:55;4.60;99.90
13970;DHT22;7057;49.984;8.404;2023-04-03T04:56:22;4.40;99.90
13970;DHT22;7057;49.984;8.404;2023-04-03T04:58:49;4.40;99.90
13970;DHT22;7057;49.984;8.404;2023-04-03T05:01:18;4.30;99.90
13970;DHT22;7057;49.984;8.404;2023-04-03T05:03:45;4.30;99.90
13970;DHT22;7057;49.984;8.404;2023-04-03T05:06:13;4.30;99.90
13970;DHT22;7057;49.984;8.404;2023-04-03T05:08:40;4.30;99.90
13970;DHT22;7057;49.984;8.404;2023-04-03T05:11:07;4.30;99.90
13970;DHT22;7057;49.984;8.404;2023-04-03T05:13:35;4.20;99.90
13970;DHT22;7057;49.984;8.404;2023-04-03T05:16:02;4.10;99.90
13970;DHT22;7057;49.984;8.404;2023-04-03T05:18:30;4.10;99.90
13970;DHT22;7057;49.984;8.404;2023-04-03T05:20:58;4.10;99.90
13970;DHT22;7057;49.984;8.404;2023-04-03T05:23:25;4.10;99.90
13970;DHT22;7057;49.984;8.404;2023-04-03T05:25:53;4.10;99.90
13970;DHT22;7057;49.984;8.404;2023-04-03T05:28:20;4.10;99.90
13970;DHT22;7057;49.984;8.404;2023-04-03T05:30:53;4.10;99.90
13970;DHT22;7057;49.984;8.404;2023-04-03T05:33:21;4.00;99.90
13970;DHT22;7057;49.984;8.404;2023-04-03T05:35:50;4.10;99.90
13970;DHT22;7057;49.984;8.404;2023-04-03T05:38:17;4.10;99.90
13970;DHT22;7057;49.984;8.404;2023-04-03T05:40:44;4.00;99.90
13970;DHT22;7057;49.984;8.404;2023-04-03T05:43:11;4.00;99.90
13970;DHT22;7057;49.984;8.404;2023-04-03T05:45:38;4.00;99.90
13970;DHT22;7057;49.984;8.404;2023-04-03T05:48:06;4.10;99.90
13970;DHT22;7057;49.984;8.404;2023-04-03T05:50:33;4.10;99.90
13970;DHT22;7057;49.984;8.404;2023-04-03T05:53:02;4.10;99.90
13970;DHT22;7057;49.984;8.404;2023-04-03T05:55:30;4.10;99.90
13970;DHT22;7057;49.984;8.404;2023-04-03T05:57:57;4.20;99.90
13970;DHT22;7057;49.984;8.404;2023-04-03T06:00:24;4.30;99.90
13970;DHT22;7057;49.984;8.404;2023-04-03T06:02:51;4.30;99.90
13970;DHT22;7057;49.984;8.404;2023-04-03T06:05:18;4.40;99.90
13970;DHT22;7057;49.984;8.404;2023-04-03T06:07:45;4.40;99.90
13970;DHT22;7057;49.984;8.404;2023-04-03T06:10:13;4.30;99.90
13970;DHT22;7057;49.984;8.404;2023-04-03T06:12:41;4.30;99.90
13970;DHT22;7057;49.984;8.404;2023-04-03T06:15:08;4.30;99.90
13970;DHT22;7057;49.984;8.404;2023-04-03T06:17:37;4.30;99.90
13970;DHT22;7057;49.984;8.404;2023-04-03T06:20:05;4.40;99.90
13970;DHT22;7057;49.984;8.404;2023-04-03T06:22:33;4.40;99.90
13970;DHT22;7057;49.984;8.404;2023-04-03T06:25:00;4.30;99.90
13970;DHT22;7057;49.984;8.404;2023-04-03T06:27:29;4.40;99.90
13970;DHT22;7057;49.984;8.404;2023-04-03T06:29:56;4.40;99.90
13970;DHT22;7057;49.984;8.404;2023-04-03T06:32:23;4.40;99.90
13970;DHT22;7057;49.984;8.404;2023-04-03T06:34:50;4.50;99.90
13970;DHT22;7057;49.984;8.404;2023-04-03T06:37:20;4.50;99.90
13970;DHT22;7057;49.984;8.404;2023-04-03T06:39:48;4.50;99.90
13970;DHT22;7057;49.984;8.404;2023-04-03T06:42:15;4.50;99.90
13970;DHT22;7057;49.984;8.404;2023-04-03T06:44:44;4.50;99.90
13970;DHT22;7057;49.984;8.404;2023-04-03T06:47:11;4.60;99.90
13970;DHT22;7057;49.984;8.404;2023-04-03T06:49:39;4.70;99.90
13970;DHT22;7057;49.984;8.404;2023-04-03T06:52:07;4.70;99.90
13970;DHT22;7057;49.984;8.404;2023-04-03T06:54:34;4.70;99.90
13970;DHT22;7057;49.984;8.404;2023-04-03T06:57:02;4.70;99.90
13970;DHT22;7057;49.984;8.404;2023-04-03T06:59:29;4.70;99.90
13970;DHT22;7057;49.984;8.404;2023-04-03T07:01:57;4.70;99.90
13970;DHT22;7057;49.984;8.404;2023-04-03T07:04:25;4.70;99.90
13970;DHT22;7057;49.984;8.404;2023-04-03T07:06:52;4.80;99.90
13970;DHT22;7057;49.984;8.404;2023-04-03T07:09:20;4.90;99.90
13970;DHT22;7057;49.984;8.404;2023-04-03T07:11:47;4.90;99.90
13970;DHT22;7057;49.984;8.404;2023-04-03T07:14:14;4.90;99.90
13970;DHT22;7057;49.984;8.404;2023-04-03T07:16:41;5.00;99.90
13970;DHT22;7057;49.984;8.404;2023-04-03T07:19:10;5.10;99.90
13970;DHT22;7057;49.984;8.404;2023-04-03T07:21:37;5.10;99.90
13970;DHT22;7057;49.984;8.404;2023-04-03T07:24:04;5.20;99.90
13970;DHT22;7057;49.984;8.404;2023-04-03T07:26:32;5.20;99.90
13970;DHT22;7057;49.984;8.404;2023-04-03T07:28:59;5.20;99.90
13970;DHT22;7057;49.984;8.404;2023-04-03T07:31:26;5.20;99.90
13970;DHT22;7057;49.984;8.404;2023-04-03T07:33:53;5.10;99.90
13970;DHT22;7057;49.984;8.404;2023-04-03T07:36:23;5.20;99.90
13970;DHT22;7057;49.984;8.404;2023-04-03T07:38:50;5.40;99.90
13970;DHT22;7057;49.984;8.404;2023-04-03T07:41:18;5.40;99.90
13970;DHT22;7057;49.984;8.404;2023-04-03T07:43:48;5.30;99.90
13970;DHT22;7057;49.984;8.404;2023-04-03T07:46:16;5.30;99.90
13970;DHT22;7057;49.984;8.404;2023-04-03T07:48:44;5.20;99.90
13970;DHT22;7057;49.984;8.404;2023-04-03T07:51:11;5.30;99.90
13970;DHT22;7057;49.984;8.404;2023-04-03T07:53:40;5.30;99.90
13970;DHT22;7057;49.984;8.404;2023-04-03T07:56:08;5.40;99.90
13970;DHT22;7057;49.984;8.404;2023-04-03T07:58:36;5.40;99.90
13970;DHT22;7057;49.984;8.404;2023-04-03T08:01:04;5.40;99.90
13970;DHT22;7057;49.984;8.404;2023-04-03T08:03:32;5.50;99.90
13970;DHT22;7057;49.984;8.404;2023-04-03T08:06:02;5.50;99.90
13970;DHT22;7057;49.984;8.404;2023-04-03T08:08:30;5.50;99.90
13970;DHT22;7057;49.984;8.404;2023-04-03T08:11:00;5.50;99.90
13970;DHT22;7057;49.984;8.404;2023-04-03T08:13:29;5.60;99.90
13970;DHT22;7057;49.984;8.404;2023-04-03T08:15:56;5.70;99.90
13970;DHT22;7057;49.984;8.404;2023-04-03T08:18:25;5.80;99.90
13970;DHT22;7057;49.984;8.404;2023-04-03T08:20:52;5.80;99.90
13970;DHT22;7057;49.984;8.404;2023-04-03T08:23:19;5.90;99.90
13970;DHT22;7057;49.984;8.404;2023-04-03T08:25:46;6.00;99.90
13970;DHT22;7057;49.984;8.404;2023-04-03T08:28:15;6.10;99.90
13970;DHT22;7057;49.984;8.404;2023-04-03T08:30:43;6.10;99.90
13970;DHT22;7057;49.984;8.404;2023-04-03T08:33:10;6.00;99.90
13970;DHT22;7057;49.984;8.404;2023-04-03T08:35:41;6.00;99.90
13970;DHT22;7057;49.984;8.404;2023-04-03T08:38:09;6.00;99.90
13970;DHT22;7057;49.984;8.404;2023-04-03T08:40:36;6.10;99.90
13970;DHT22;7057;49.984;8.404;2023-04-03T08:43:20;6.10;99.90
13970;DHT22;7057;49.984;8.404;2023-04-03T08:45:53;6.20;99.90
13970;DHT22;7057;49.984;8.404;2023-04-03T08:48:25;6.40;99.90
13970;DHT22;7057;49.984;8.404;2023-04-03T08:50:57;6.50;99.90
13970;DHT22;7057;49.984;8.404;2023-04-03T08:53:26;6.70;99.90
13970;DHT22;7057;49.984;8.404;2023-04-03T08:55:57;6.90;99.90
13970;DHT22;7057;49.984;8.404;2023-04-03T08:58:27;6.90;99.90
13970;DHT22;7057;49.984;8.404;2023-04-03T09:00:58;6.80;99.90
13970;DHT22;7057;49.984;8.404;2023-04-03T09:03:29;6.90;99.90
13970;DHT22;7057;49.984;8.404;2023-04-03T09:06:02;6.80;99.90
13970;DHT22;7057;49.984;8.404;2023-04-03T09:08:32;6.80;99.90
13970;DHT22;7057;49.984;8.404;2023-04-03T09:11:09;6.80;99.90
13970;DHT22;7057;49.984;8.404;2023-04-03T09:13:46;6.90;99.90
13970;DHT22;7057;49.984;8.404;2023-04-03T09:16:21;7.10;99.90
13970;DHT22;7057;49.984;8.404;2023-04-03T09:18:57;7.10;99.90
13970;DHT22;7057;49.984;8.404;2023-04-03T09:21:31;7.00;99.90
13970;DHT22;7057;49.984;8.404;2023-04-03T09:24:01;6.90;99.90
13970;DHT22;7057;49.984;8.404;2023-04-03T09:26:34;7.00;99.90
13970;DHT22;7057;49.984;8.404;2023-04-03T09:29:06;7.00;99.90
13970;DHT22;7057;49.984;8.404;2023-04-03T09:31:37;7.10;99.90
13970;DHT22;7057;49.984;8.404;2023-04-03T09:34:10;7.00;99.90
13970;DHT22;7057;49.984;8.404;2023-04-03T09:36:42;6.80;99.90
13970;DHT22;7057;49.984;8.404;2023-04-03T09:39:13;6.70;99.90
13970;DHT22;7057;49.984;8.404;2023-04-03T09:41:42;6.80;99.90
13970;DHT22;7057;49.984;8.404;2023-04-03T09:44:24;7.00;99.90
13970;DHT22;7057;49.984;8.404;2023-04-03T09:46:51;7.20;99.90
13970;DHT22;7057;49.984;8.404;2023-04-03T09:49:19;7.30;99.90
13970;DHT22;7057;49.984;8.404;2023-04-03T09:51:46;7.50;99.90
13970;DHT22;7057;49.984;8.404;2023-04-03T09:54:35;7.70;99.90
13970;DHT22;7057;49.984;8.404;2023-04-03T09:57:09;7.50;99.90
13970;DHT22;7057;49.984;8.404;2023-04-03T09:59:44;7.60;99.90
13970;DHT22;7057;49.984;8.404;2023-04-03T10:02:32;7.70;99.90
13970;DHT22;7057;49.984;8.404;2023-04-03T10:05:01;7.90;99.90
13970;DHT22;7057;49.984;8.404;2023-04-03T10:07:32;8.10;99.90
13970;DHT22;7057;49.984;8.404;2023-04-03T10:10:10;7.90;99.90
13970;DHT22;7057;49.984;8.404;2023-04-03T10:12:42;7.90;99.90
13970;DHT22;7057;49.984;8.404;2023-04-03T10:15:14;7.90;99.90
13970;DHT22;7057;49.984;8.404;2023-04-03T10:17:54;7.70;99.90
13970;DHT22;7057;49.984;8.404;2023-04-03T10:20:32;7.50;99.90
13970;DHT22;7057;49.984;8.404;2023-04-03T10:23:14;7.80;99.90
13970;DHT22;7057;49.984;8.404;2023-04-03T10:25:53;7.70;99.90
13970;DHT22;7057;49.984;8.404;2023-04-03T10:28:25;7.90;99.90
13970;DHT22;7057;49.984;8.404;2023-04-03T10:30:58;8.10;99.90
13970;DHT22;7057;49.984;8.404;2023-04-03T10:33:39;8.10;99.90
13970;DHT22;7057;49.984;8.404;2023-04-03T10:36:17;8.00;99.90
13970;DHT22;7057;49.984;8.404;2023-04-03T10:38:51;7.90;99.90
13970;DHT22;7057;49.984;8.404;2023-04-03T10:41:29;8.10;99.90
13970;DHT22;7057;49.984;8.404;2023-04-03T10:44:08;7.90;99.90
13970;DHT22;7057;49.984;8.404;2023-04-03T10:46:43;7.80;99.90
13970;DHT22;7057;49.984;8.404;2023-04-03T10:49:30;7.80;99.90
13970;DHT22;7057;49.984;8.404;2023-04-03T10:52:05;7.80;99.90
13970;DHT22;7057;49.984;8.404;2023-04-03T10:54:37;7.90;99.90
13970;DHT22;7057;49.984;8.404;2023-04-03T10:57:08;8.00;99.90
13970;DHT22;7057;49.984;8.404;2023-04-03T10:59:38;7.90;99.90
13970;DHT22;7057;49.984;8.404;2023-04-03T11:02:16;7.90;99.90
13970;DHT22;7057;49.984;8.404;2023-04-03T11:04:49;8.10;99.90
13970;DHT22;7057;49.984;8.404;2023-04-03T11:07:21;8.30;99.90
13970;DHT22;7057;49.984;8.404;2023-04-03T11:09:52;8.30;99.90
13970;DHT22;7057;49.984;8.404;2023-04-03T11:12:24;8.20;99.90
13970;DHT22;7057;49.984;8.404;2023-04-03T11:14:55;8.20;99.90
13970;DHT22;7057;49.984;8.404;2023-04-03T11:17:28;8.30;99.90
13970;DHT22;7057;49.984;8.404;2023-04-03T11:20:03;8.50;99.90
13970;DHT22;7057;49.984;8.404;2023-04-03T11:22:34;8.60;99.90
13970;DHT22;7057;49.984;8.404;2023-04-03T11:25:06;8.30;99.90
13970;DHT22;7057;49.984;8.404;2023-04-03T11:27:44;8.40;99.90
13970;DHT22;7057;49.984;8.404;2023-04-03T11:30:17;8.70;99.90
13970;DHT22;7057;49.984;8.404;2023-04-03T11:32:58;8.80;99.90
13970;DHT22;7057;49.984;8.404;2023-04-03T11:35:27;8.70;99.90
13970;DHT22;7057;49.984;8.404;2023-04-03T11:37:55;8.70;99.90
13970;DHT22;7057;49.984;8.404;2023-04-03T11:40:25;8.80;99.90
13970;DHT22;7057;49.984;8.404;2023-04-03T11:42:55;8.90;99.90
13970;DHT22;7057;49.984;8.404;2023-04-03T11:45:36;8.70;99.90
13970;DHT22;7057;49.984;8.404;2023-04-03T11:48:47;8.60;99.90
13970;DHT22;7057;49.984;8.404;2023-04-03T11:51:42;8.40;99.90
13970;DHT22;7057;49.984;8.404;2023-04-03T11:54:35;8.70;99.90
13970;DHT22;7057;49.984;8.404;2023-04-03T11:59:59;8.80;99.90
13970;DHT22;7057;49.984;8.404;2023-04-03T12:02:37;8.90;99.90
13970;DHT22;7057;49.984;8.404;2023-04-03T12:05:28;8.80;99.90
13970;DHT22;7057;49.984;8.404;2023-04-03T12:08:15;8.80;99.90
13970;DHT22;7057;49.984;8.404;2023-04-03T12:14:03;8.90;99.90
13970;DHT22;7057;49.984;8.404;2023-04-03T12:16:33;8.70;99.90
13970;DHT22;7057;49.984;8.404;2023-04-03T12:19:30;8.50;99.90
13970;DHT22;7057;49.984;8.404;2023-04-03T12:22:08;8.50;99.90
13970;DHT22;7057;49.984;8.404;2023-04-03T12:24:36;8.80;99.90
13970;DHT22;7057;49.984;8.404;2023-04-03T12:27:15;8.70;99.90
13970;DHT22;7057;49.984;8.404;2023-04-03T12:29:49;8.80;99.90
13970;DHT22;7057;49.984;8.404;2023-04-03T12:32:26;8.90;99.90
13970;DHT22;7057;49.984;8.404;2023-04-03T12:35:21;8.80;99.90
13970;DHT22;7057;49.984;8.404;2023-04-03T12:38:28;9.00;99.90
13970;DHT22;7057;49.984;8.404;2023-04-03T12:41:21;9.20;99.90
13970;DHT22;7057;49.984;8.404;2023-04-03T12:44:18;9.40;99.90
13970;DHT22;7057;49.984;8.404;2023-04-03T12:46:51;9.40;99.90
13970;DHT22;7057;49.984;8.404;2023-04-03T12:49:31;9.30;99.90
13970;DHT22;7057;49.984;8.404;2023-04-03T12:52:00;9.30;99.90
13970;DHT22;7057;49.984;8.404;2023-04-03T12:54:31;9.30;99.90
13970;DHT22;7057;49.984;8.404;2023-04-03T12:57:12;9.10;99.90
13970;DHT22;7057;49.984;8.404;2023-04-03T12:59:39;9.10;99.90
13970;DHT22;7057;49.984;8.404;2023-04-03T13:02:21;9.20;99.90
13970;DHT22;7057;49.984;8.404;2023-04-03T13:04:49;9.30;99.90
13970;DHT22;7057;49.984;8.404;2023-04-03T13:07:25;9.40;99.90
13970;DHT22;7057;49.984;8.404;2023-04-03T13:10:04;9.50;99.90
13970;DHT22;7057;49.984;8.404;2023-04-03T13:12:45;9.50;99.90
13970;DHT22;7057;49.984;8.404;2023-04-03T13:15:15;9.40;99.90
13970;DHT22;7057;49.984;8.404;2023-04-03T13:17:43;9.30;99.90
13970;DHT22;7057;49.984;8.404;2023-04-03T13:20:13;9.50;99.90
13970;DHT22;7057;49.984;8.404;2023-04-03T13:22:48;9.50;99.90
13970;DHT22;7057;49.984;8.404;2023-04-03T13:25:20;9.40;99.90
13970;DHT22;7057;49.984;8.404;2023-04-03T13:27:48;9.50;99.90
13970;DHT22;7057;49.984;8.404;2023-04-03T13:30:25;9.40;99.90
13970;DHT22;7057;49.984;8.404;2023-04-03T13:32:54;9.10;99.90
13970;DHT22;7057;49.984;8.404;2023-04-03T13:35:28;9.10;99.90
13970;DHT22;7057;49.984;8.404;2023-04-03T13:37:57;9.10;99.90
13970;DHT22;7057;49.984;8.404;2023-04-03T13:40:26;9.30;99.90
13970;DHT22;7057;49.984;8.404;2023-04-03T13:43:05;9.40;99.90
13970;DHT22;7057;49.984;8.404;2023-04-03T13:45:34;9.40;99.90
13970;DHT22;7057;49.984;8.404;2023-04-03T13:48:11;9.40;99.90
13970;DHT22;7057;49.984;8.404;2023-04-03T13:50:55;9.40;99.90
13970;DHT22;7057;49.984;8.404;2023-04-03T13:53:24;9.60;99.90
13970;DHT22;7057;49.984;8.404;2023-04-03T13:55:59;9.50;99.90
13970;DHT22;7057;49.984;8.404;2023-04-03T13:58:29;9.40;99.90
13970;DHT22;7057;49.984;8.404;2023-04-03T14:01:01;9.30;99.90
13970;DHT22;7057;49.984;8.404;2023-04-03T14:03:40;9.20;99.90
13970;DHT22;7057;49.984;8.404;2023-04-03T14:06:10;9.20;99.90
13970;DHT22;7057;49.984;8.404;2023-04-03T14:08:39;9.20;99.90
13970;DHT22;7057;49.984;8.404;2023-04-03T14:11:13;9.10;99.90
13970;DHT22;7057;49.984;8.404;2023-04-03T14:13:41;9.10;99.90
13970;DHT22;7057;49.984;8.404;2023-04-03T14:16:13;9.10;99.90
13970;DHT22;7057;49.984;8.404;2023-04-03T14:18:40;9.10;99.90
13970;DHT22;7057;49.984;8.404;2023-04-03T14:21:10;9.10;99.90
13970;DHT22;7057;49.984;8.404;2023-04-03T14:23:38;9.20;99.90
13970;DHT22;7057;49.984;8.404;2023-04-03T14:26:11;9.20;99.90
13970;DHT22;7057;49.984;8.404;2023-04-03T14:28:39;9.10;99.90
13970;DHT22;7057;49.984;8.404;2023-04-03T14:31:07;9.20;99.90
13970;DHT22;7057;49.984;8.404;2023-04-03T14:33:34;9.30;99.90
13970;DHT22;7057;49.984;8.404;2023-04-03T14:36:12;9.40;99.90
13970;DHT22;7057;49.984;8.404;2023-04-03T14:38:40;9.40;99.90
13970;DHT22;7057;49.984;8.404;2023-04-03T14:41:07;9.50;99.90
13970;DHT22;7057;49.984;8.404;2023-04-03T14:43:38;9.60;99.70
13970;DHT22;7057;49.984;8.404;2023-04-03T14:46:11;9.50;99.80
13970;DHT22;7057;49.984;8.404;2023-04-03T14:48:39;9.40;99.40
13970;DHT22;7057;49.984;8.404;2023-04-03T14:51:06;9.50;99.40
13970;DHT22;7057;49.984;8.404;2023-04-03T14:53:34;9.40;99.50
13970;DHT22;7057;49.984;8.404;2023-04-03T14:56:01;9.40;99.50
13970;DHT22;7057;49.984;8.404;2023-04-03T14:58:29;9.40;99.40
13970;DHT22;7057;49.984;8.404;2023-04-03T15:00:59;9.40;99.50
13970;DHT22;7057;49.984;8.404;2023-04-03T15:03:26;9.10;99.80
13970;DHT22;7057;49.984;8.404;2023-04-03T15:05:53;9.00;99.60
13970;DHT22;7057;49.984;8.404;2023-04-03T15:08:23;9.00;99.90
13970;DHT22;7057;49.984;8.404;2023-04-03T15:10:51;9.10;99.70
13970;DHT22;7057;49.984;8.404;2023-04-03T15:13:21;9.20;99.90
13970;DHT22;7057;49.984;8.404;2023-04-03T15:15:49;9.20;99.70
13970;DHT22;7057;49.984;8.404;2023-04-03T15:18:20;9.30;99.60
13970;DHT22;7057;49.984;8.404;2023-04-03T15:20:48;9.30;99.30
13970;DHT22;7057;49.984;8.404;2023-04-03T15:23:16;9.30;99.00
13970;DHT22;7057;49.984;8.404;2023-04-03T15:25:44;9.30;98.80
13970;DHT22;7057;49.984;8.404;2023-04-03T15:28:18;9.30;98.90
13970;DHT22;7057;49.984;8.404;2023-04-03T15:30:46;9.30;99.10
13970;DHT22;7057;49.984;8.404;2023-04-03T15:33:14;9.40;99.20
13970;DHT22;7057;49.984;8.404;2023-04-03T15:35:42;9.20;99.10
13970;DHT22;7057;49.984;8.404;2023-04-03T15:38:10;9.20;99.20
13970;DHT22;7057;49.984;8.404;2023-04-03T15:40:37;9.20;99.30
13970;DHT22;7057;49.984;8.404;2023-04-03T15:43:05;9.20;99.60
13970;DHT22;7057;49.984;8.404;2023-04-03T15:45:34;9.20;99.20
13970;DHT22;7057;49.984;8.404;2023-04-03T15:48:02;9.20;99.00
13970;DHT22;7057;49.984;8.404;2023-04-03T15:50:31;9.20;99.40
13970;DHT22;7057;49.984;8.404;2023-04-03T15:53:00;9.20;99.30
13970;DHT22;7057;49.984;8.404;2023-04-03T15:55:29;9.20;99.30
13970;DHT22;7057;49.984;8.404;2023-04-03T15:57:57;9.10;98.90
13970;DHT22;7057;49.984;8.404;2023-04-03T16:00:25;9.00;99.40
13970;DHT22;7057;49.984;8.404;2023-04-03T16:02:55;9.10;99.00
13970;DHT22;7057;49.984;8.404;2023-04-03T16:05:23;9.10;99.20
13970;DHT22;7057;49.984;8.404;2023-04-03T16:07:51;9.20;98.90
13970;DHT22;7057;49.984;8.404;2023-04-03T16:10:21;9.20;98.50
13970;DHT22;7057;49.984;8.404;2023-04-03T16:12:48;9.30;98.60
13970;DHT22;7057;49.984;8.404;2023-04-03T16:15:15;9.30;98.60
13970;DHT22;7057;49.984;8.404;2023-04-03T16:17:42;9.30;98.50
13970;DHT22;7057;49.984;8.404;2023-04-03T16:20:11;9.30;98.60
13970;DHT22;7057;49.984;8.404;2023-04-03T16:22:40;9.20;98.70
13970;DHT22;7057;49.984;8.404;2023-04-03T16:25:08;9.30;98.60
13970;DHT22;7057;49.984;8.404;2023-04-03T16:27:37;9.30;99.00
13970;DHT22;7057;49.984;8.404;2023-04-03T16:30:05;9.30;98.50
13970;DHT22;7057;49.984;8.404;2023-04-03T16:32:33;9.10;98.50